Time;durP1;ratioP1;P1;durP2;ratioP2;P2;SDS_P1;SDS_P2;PMS_P1;PMS_P2;Temp;Humidity;BMP_temperature;BMP_pressure;BME280_temperature;BME280_humidity;BME280_pressure;Samples;Min_cycle;Max_cycle;Signal;HPM_P1;HPM_P2
2023/10/12 00:02:15;;;;;;;;;;;;;;;7.67;100.00;100737.88;5073929;28;1137;-64
2023/10/12 00:04:43;;;;;;;;;;;;;;;7.57;100.00;100742.00;5074415;28;881;-64
2023/10/12 00:07:17;;;;;;;;;;;;;;;7.50;100.00;100733.59;5074275;28;872;-64
2023/10/12 00:10:01;;;;;;;;;;;;;;;7.49;100.00;100735.56;5073073;28;1185;-64
2023/10/12 00:12:35;;;;;;;;;;;;;;;7.46;100.00;100729.97;5074095;28;1017;-64
2023/10/12 00:15:05;;;;;;;;;;;;;;;7.44;100.00;100732.28;5074191;28;1897;-64
2023/10/12 00:17:33;;;;;;;;;;;;;;;7.41;100.00;100731.03;5034181;28;842;-64
2023/10/12 00:20:00;;;;;;;;;;;;;;;7.39;100.00;100719.59;5034194;28;842;-64
2023/10/12 00:22:27;;;;;;;;;;;;;;;7.43;100.00;100723.22;5034270;28;882;-64
2023/10/12 00:24:53;;;;;;;;;;;;;;;7.44;100.00;100722.06;5034083;28;973;-64
2023/10/12 00:27:20;;;;;;;;;;;;;;;7.42;100.00;100716.13;5033910;28;897;-64
2023/10/12 00:29:49;;;;;;;;;;;;;;;7.40;100.00;100717.63;5033904;28;814;-64
2023/10/12 00:32:15;;;;;;;;;;;;;;;7.39;100.00;100714.09;5033950;28;882;-64
2023/10/12 00:34:45;;;;;;;;;;;;;;;7.44;100.00;100716.56;5033760;28;1981;-63
2023/10/12 00:37:13;;;;;;;;;;;;;;;7.47;100.00;100713.09;5034114;28;866;-64
2023/10/12 00:42:18;;;;;;;;;;;;;;;7.44;100.00;100710.25;5033183;28;771;-64
2023/10/12 00:44:48;;;;;;;;;;;;;;;7.42;100.00;100696.84;5033714;28;839;-65
2023/10/12 00:47:44;;;;;;;;;;;;;;;7.41;100.00;100694.50;5033592;28;971;-64
2023/10/12 00:50:11;;;;;;;;;;;;;;;7.43;100.00;100689.44;5033706;28;850;-64
2023/10/12 00:53:14;;;;;;;;;;;;;;;7.43;100.00;100679.22;5033698;28;834;-64
2023/10/12 00:55:42;;;;;;;;;;;;;;;7.41;100.00;100683.50;5033343;28;1890;-64
2023/10/12 00:58:08;;;;;;;;;;;;;;;7.37;100.00;100691.66;5033363;28;799;-64
2023/10/12 01:00:36;;;;;;;;;;;;;;;7.32;100.00;100692.72;5033397;28;798;-64
2023/10/12 01:06:06;;;;;;;;;;;;;;;7.31;100.00;100693.09;5033236;28;716;-64
2023/10/12 01:08:33;;;;;;;;;;;;;;;7.27;100.00;100705.94;5033348;28;858;-65
2023/10/12 01:11:05;;;;;;;;;;;;;;;7.23;100.00;100700.38;5033194;28;843;-64
2023/10/12 01:13:33;;;;;;;;;;;;;;;7.23;100.00;100697.63;5033403;28;937;-64
2023/10/12 01:16:20;;;;;;;;;;;;;;;7.25;100.00;100689.00;5048152;28;1890;-64
2023/10/12 01:18:51;;;;;;;;;;;;;;;7.27;100.00;100687.50;5072963;28;818;-64
2023/10/12 01:21:17;;;;;;;;;;;;;;;7.29;100.00;100681.66;5073041;28;1242;-64
2023/10/12 01:23:50;;;;;;;;;;;;;;;7.30;100.00;100692.28;5072971;28;858;-64
2023/10/12 01:26:18;;;;;;;;;;;;;;;7.33;100.00;100688.03;5072798;28;825;-64
2023/10/12 01:28:49;;;;;;;;;;;;;;;7.33;100.00;100679.78;5072652;28;943;-64
2023/10/12 01:31:26;;;;;;;;;;;;;;;7.35;100.00;100682.97;5073151;28;866;-64
2023/10/12 01:33:55;;;;;;;;;;;;;;;7.34;100.00;100695.94;5073015;28;1216;-64
2023/10/12 01:36:22;;;;;;;;;;;;;;;7.32;100.00;100681.72;5072816;28;1972;-64
2023/10/12 01:38:56;;;;;;;;;;;;;;;7.30;100.00;100681.28;5072676;28;947;-64
2023/10/12 01:41:26;;;;;;;;;;;;;;;7.25;100.00;100676.06;5072540;28;842;-64
2023/10/12 01:43:52;;;;;;;;;;;;;;;7.24;100.00;100679.97;5072466;28;873;-64
2023/10/12 01:46:21;;;;;;;;;;;;;;;7.22;100.00;100681.50;5087898;28;1263;-64
2023/10/12 01:48:49;;;;;;;;;;;;;;;7.19;100.00;100684.94;5072355;28;932;-64
2023/10/12 01:51:24;;;;;;;;;;;;;;;7.16;100.00;100678.22;5072237;28;960;-64
2023/10/12 01:53:55;;;;;;;;;;;;;;;7.12;100.00;100674.59;5071880;28;828;-64
2023/10/12 01:56:27;;;;;;;;;;;;;;;7.07;100.00;100681.16;5072097;28;1910;-64
2023/10/12 01:58:54;;;;;;;;;;;;;;;7.04;100.00;100683.81;5072315;28;834;-64
2023/10/12 02:01:24;;;;;;;;;;;;;;;6.98;100.00;100687.97;5072189;28;853;-64
2023/10/12 02:03:55;;;;;;;;;;;;;;;6.91;100.00;100672.94;5072190;28;830;-64
2023/10/12 02:06:28;;;;;;;;;;;;;;;6.88;100.00;100681.09;5072115;28;877;-64
2023/10/12 02:08:59;;;;;;;;;;;;;;;6.83;100.00;100681.34;5072238;28;876;-64
2023/10/12 02:13:54;;;;;;;;;;;;;;;6.81;100.00;100684.47;5072248;28;1032;-64
2023/10/12 02:16:24;;;;;;;;;;;;;;;6.80;100.00;100676.56;5071861;28;1914;-64
2023/10/12 02:18:54;;;;;;;;;;;;;;;6.79;100.00;100683.25;5071952;28;913;-64
2023/10/12 02:21:22;;;;;;;;;;;;;;;6.77;100.00;100672.59;5071945;28;829;-64
2023/10/12 02:26:29;;;;;;;;;;;;;;;6.73;100.00;100672.50;5071798;28;900;-64
2023/10/12 02:29:04;;;;;;;;;;;;;;;6.75;100.00;100674.91;5072110;28;826;-64
2023/10/12 02:31:30;;;;;;;;;;;;;;;6.76;100.00;100668.22;5071795;28;830;-64
2023/10/12 02:34:00;;;;;;;;;;;;;;;6.77;100.00;100669.06;5070529;28;1297;-64
2023/10/12 02:36:28;;;;;;;;;;;;;;;6.77;100.00;100672.59;5071760;28;1909;-64
2023/10/12 02:39:00;;;;;;;;;;;;;;;6.77;100.00;100667.09;5070418;28;1421;-64
2023/10/12 02:41:26;;;;;;;;;;;;;;;6.74;100.00;100671.34;5072010;28;865;-64
2023/10/12 02:44:11;;;;;;;;;;;;;;;6.71;100.00;100671.25;5072171;28;751;-64
2023/10/12 02:47:11;;;;;;;;;;;;;;;6.71;100.00;100668.50;5071742;28;924;-64
2023/10/12 02:49:38;;;;;;;;;;;;;;;6.67;100.00;100659.38;5071533;28;1105;-64
2023/10/12 02:52:10;;;;;;;;;;;;;;;6.65;100.00;100659.72;5070344;28;1277;-65
2023/10/12 02:54:52;;;;;;;;;;;;;;;6.60;100.00;100657.25;5071517;28;866;-64
2023/10/12 02:57:40;;;;;;;;;;;;;;;6.52;100.00;100666.47;5071541;28;801;-64
2023/10/12 03:00:32;;;;;;;;;;;;;;;6.44;100.00;100664.69;5071272;28;1181;-64
2023/10/12 03:03:07;;;;;;;;;;;;;;;6.43;100.00;100658.41;5071241;28;1587;-64
2023/10/12 03:05:44;;;;;;;;;;;;;;;6.44;100.00;100661.94;5075350;28;873;-64
2023/10/12 03:08:11;;;;;;;;;;;;;;;6.43;100.00;100663.91;5075690;28;841;-64
2023/10/12 03:11:00;;;;;;;;;;;;;;;6.41;100.00;100665.41;5075459;28;869;-64
2023/10/12 03:13:33;;;;;;;;;;;;;;;6.39;100.00;100652.03;5075210;28;1062;-65
2023/10/12 03:16:08;;;;;;;;;;;;;;;6.39;100.00;100656.72;5075015;28;1977;-64
2023/10/12 03:18:35;;;;;;;;;;;;;;;6.43;100.00;100652.13;5075245;28;882;-65
2023/10/12 03:21:05;;;;;;;;;;;;;;;6.44;100.00;100659.19;5075252;28;817;-64
2023/10/12 03:23:33;;;;;;;;;;;;;;;6.45;100.00;100660.81;5074918;28;830;-64
2023/10/12 03:26:04;;;;;;;;;;;;;;;6.47;100.00;100661.25;5073871;28;1430;-65
2023/10/12 03:28:36;;;;;;;;;;;;;;;6.52;100.00;100658.22;5074983;28;909;-64
2023/10/12 03:31:16;;;;;;;;;;;;;;;6.53;100.00;100666.13;5075061;28;956;-65
2023/10/12 03:33:54;;;;;;;;;;;;;;;6.50;100.00;100652.28;5074907;28;929;-65
2023/10/12 03:36:23;;;;;;;;;;;;;;;6.51;100.00;100657.44;5074865;28;1914;-65
2023/10/12 03:44:36;;;;;;;;;;;;;;;6.47;100.00;100647.53;5074767;28;1241;-64
2023/10/12 03:47:54;;;;;;;;;;;;;;;6.45;100.00;100644.34;5074763;28;857;-64
2023/10/12 03:52:19;;;;;;;;;;;;;;;6.53;100.00;100646.91;5074606;28;719;-64
2023/10/12 04:02:54;;;;;;;;;;;;;;;6.54;100.00;100658.69;5074406;28;840;-64
2023/10/12 04:05:34;;;;;;;;;;;;;;;6.55;100.00;100660.28;5073018;28;1295;-65
2023/10/12 04:08:01;;;;;;;;;;;;;;;6.59;100.00;100658.41;5074535;28;845;-64
2023/10/12 04:19:03;;;;;;;;;;;;;;;6.72;100.00;100654.44;5074116;28;993;-65
2023/10/12 04:21:56;;;;;;;;;;;;;;;6.79;100.00;100655.75;5073781;28;1103;-65
2023/10/12 04:24:27;;;;;;;;;;;;;;;6.81;100.00;100658.94;5072614;28;1396;-65
2023/10/12 04:29:39;;;;;;;;;;;;;;;6.85;100.00;100660.63;5073878;28;827;-65
2023/10/12 04:34:59;;;;;;;;;;;;;;;6.95;100.00;100656.53;5057487;28;1969;-65
2023/10/12 04:37:27;;;;;;;;;;;;;;;7.00;100.00;100653.50;5073778;28;881;-65
2023/10/12 04:39:57;;;;;;;;;;;;;;;7.08;100.00;100651.72;5072382;28;1332;-65
2023/10/12 04:42:26;;;;;;;;;;;;;;;7.16;100.00;100654.25;5073604;28;818;-65
2023/10/12 04:47:46;;;;;;;;;;;;;;;7.38;100.00;100651.97;5073526;28;839;-65
2023/10/12 04:50:26;;;;;;;;;;;;;;;7.51;100.00;100655.38;5073549;28;877;-65
2023/10/12 04:53:08;;;;;;;;;;;;;;;7.77;100.00;100652.03;5073716;28;842;-66
2023/10/12 04:55:36;;;;;;;;;;;;;;;8.08;100.00;100647.47;5071928;28;1882;-65
2023/10/12 04:58:31;;;;;;;;;;;;;;;8.23;100.00;100657.59;5073473;28;850;-65
2023/10/12 05:01:16;;;;;;;;;;;;;;;8.35;100.00;100660.19;5071866;28;1412;-65
2023/10/12 05:04:05;;;;;;;;;;;;;;;8.45;100.00;100661.56;5073332;28;873;-65
2023/10/12 05:06:34;;;;;;;;;;;;;;;8.64;100.00;100655.22;5072099;28;1545;-65
2023/10/12 05:09:10;;;;;;;;;;;;;;;8.89;100.00;100658.34;5071710;28;1444;-65
2023/10/12 05:11:38;;;;;;;;;;;;;;;9.16;100.00;100661.13;5073247;28;818;-65
2023/10/12 05:14:14;;;;;;;;;;;;;;;9.22;100.00;100665.16;5073512;28;892;-65
2023/10/12 05:16:45;;;;;;;;;;;;;;;9.28;100.00;100663.66;5072840;28;1957;-65
2023/10/12 05:19:12;;;;;;;;;;;;;;;9.25;100.00;100663.59;5071626;28;1164;-65
2023/10/12 05:21:38;;;;;;;;;;;;;;;9.11;100.00;100658.66;5072727;28;806;-66
2023/10/12 05:24:05;;;;;;;;;;;;;;;9.02;100.00;100653.41;5072987;28;893;-66
2023/10/12 05:26:31;;;;;;;;;;;;;;;9.06;100.00;100659.78;5072883;28;817;-66
2023/10/12 05:29:18;;;;;;;;;;;;;;;9.18;100.00;100667.84;5072745;28;897;-66
2023/10/12 05:31:59;;;;;;;;;;;;;;;9.35;100.00;100671.25;5072759;28;1546;-65
2023/10/12 05:34:34;;;;;;;;;;;;;;;9.53;100.00;100672.25;5072657;28;942;-66
2023/10/12 05:37:17;;;;;;;;;;;;;;;9.76;100.00;100674.94;5072558;28;1926;-66
2023/10/12 05:39:47;;;;;;;;;;;;;;;10.09;100.00;100669.78;5072478;28;1100;-66
2023/10/12 05:42:20;;;;;;;;;;;;;;;10.60;100.00;100681.00;5072510;28;881;-66
2023/10/12 05:44:48;;;;;;;;;;;;;;;11.05;100.00;100678.16;5072454;28;897;-66
2023/10/12 05:47:17;;;;;;;;;;;;;;;11.08;100.00;100674.66;5072426;28;967;-66
2023/10/12 05:49:50;;;;;;;;;;;;;;;10.70;100.00;100676.72;5072797;28;841;-66
2023/10/12 05:52:17;;;;;;;;;;;;;;;10.55;100.00;100686.06;5072389;28;829;-66
2023/10/12 05:54:43;;;;;;;;;;;;;;;10.59;100.00;100692.44;5072203;28;865;-66
2023/10/12 05:57:19;;;;;;;;;;;;;;;10.63;100.00;100682.97;5072336;28;924;-66
2023/10/12 05:59:46;;;;;;;;;;;;;;;10.71;100.00;100689.38;5072382;28;833;-66
2023/10/12 06:02:17;;;;;;;;;;;;;;;11.01;100.00;100688.44;5072238;28;820;-66
2023/10/12 06:04:44;;;;;;;;;;;;;;;11.40;100.00;100685.13;5072156;28;838;-66
2023/10/12 06:07:11;;;;;;;;;;;;;;;12.15;100.00;100693.78;5072066;28;778;-66
2023/10/12 06:09:37;;;;;;;;;;;;;;;12.76;100.00;100690.31;5071993;28;802;-66
2023/10/12 06:12:13;;;;;;;;;;;;;;;12.81;100.00;100693.47;5070635;28;849;-66
2023/10/12 06:14:39;;;;;;;;;;;;;;;12.75;100.00;100686.75;5072171;28;1047;-66
2023/10/12 06:17:06;;;;;;;;;;;;;;;12.95;100.00;100689.94;5071671;28;1933;-66
2023/10/12 06:19:36;;;;;;;;;;;;;;;13.16;100.00;100686.31;5072043;28;930;-66
2023/10/12 06:22:19;;;;;;;;;;;;;;;13.24;100.00;100690.69;5072230;28;844;-66
2023/10/12 06:24:49;;;;;;;;;;;;;;;13.30;100.00;100685.53;5072076;28;849;-67
2023/10/12 06:29:54;;;;;;;;;;;;;;;13.30;100.00;100682.78;5071814;28;692;-66
2023/10/12 06:32:59;;;;;;;;;;;;;;;13.42;100.00;100681.53;5072205;28;814;-67
2023/10/12 06:35:25;;;;;;;;;;;;;;;13.56;100.00;100689.84;5070519;28;1959;-67
2023/10/12 07:13:52;;;;;;;;;;;;;;;17.44;100.00;100677.31;5526647;23;1536;-58
2023/10/12 07:16:21;;;;;;;;;;;;;;;17.92;100.00;100664.78;5071380;28;1979;-58
2023/10/12 07:18:49;;;;;;;;;;;;;;;18.77;100.00;100659.19;5071294;28;866;-58
2023/10/12 07:21:21;;;;;;;;;;;;;;;19.67;100.00;100665.25;5071459;28;844;-58
2023/10/12 07:23:57;;;;;;;;;;;;;;;20.20;96.18;100664.91;5071466;28;861;-58
2023/10/12 07:26:30;;;;;;;;;;;;;;;20.60;85.24;100664.47;5071424;28;869;-58
2023/10/12 07:28:57;;;;;;;;;;;;;;;20.79;77.71;100655.00;5071287;28;897;-58
2023/10/12 07:31:48;;;;;;;;;;;;;;;20.96;74.80;100664.06;5071267;28;917;-58
2023/10/12 07:34:15;;;;;;;;;;;;;;;20.53;75.83;100671.09;5070458;28;1035;-58
2023/10/12 07:39:27;;;;;;;;;;;;;;;19.74;77.59;100669.91;5071214;28;887;-58
2023/10/12 07:41:55;;;;;;;;;;;;;;;19.42;78.95;100660.34;5070321;28;872;-58
2023/10/12 07:44:25;;;;;;;;;;;;;;;19.67;79.01;100665.25;5071058;28;897;-58
2023/10/12 07:46:56;;;;;;;;;;;;;;;20.09;78.95;100668.03;5071127;28;892;-58
2023/10/12 07:49:37;;;;;;;;;;;;;;;20.59;78.64;100662.94;5071075;28;981;-58
2023/10/12 07:57:22;;;;;;;;;;;;;;;22.44;73.03;100656.63;5074592;28;803;-58
2023/10/12 07:59:59;;;;;;;;;;;;;;;22.46;71.82;100659.78;5074453;28;889;-58
2023/10/12 08:05:57;;;;;;;;;;;;;;;23.20;68.16;100652.25;5074515;28;1216;-58
2023/10/12 08:13:14;;;;;;;;;;;;;;;23.02;67.08;100655.88;5074185;28;917;-58
2023/10/12 08:15:56;;;;;;;;;;;;;;;22.75;67.86;100650.94;5074072;28;1957;-58
2023/10/12 08:24:04;;;;;;;;;;;;;;;23.08;69.29;100646.78;5074396;28;652;-58
2023/10/12 08:26:49;;;;;;;;;;;;;;;23.06;69.44;100644.41;5074056;28;813;-58
2023/10/12 08:32:02;;;;;;;;;;;;;;;21.65;73.32;100650.44;5074120;28;758;-58
2023/10/12 08:39:38;;;;;;;;;;;;;;;20.50;78.32;100643.91;5073801;28;774;-58
2023/10/12 08:44:50;;;;;;;;;;;;;;;21.25;77.50;100637.78;5074054;28;809;-58
2023/10/12 08:47:26;;;;;;;;;;;;;;;21.71;76.79;100635.31;5073709;28;814;-57
2023/10/12 08:49:53;;;;;;;;;;;;;;;21.26;77.38;100636.53;5073663;28;917;-58
2023/10/12 08:52:27;;;;;;;;;;;;;;;20.98;79.22;100632.72;5073468;28;968;-58
2023/10/12 08:55:04;;;;;;;;;;;;;;;22.11;75.57;100626.16;5073737;28;1949;-58
2023/10/12 08:57:38;;;;;;;;;;;;;;;22.45;74.00;100632.06;5073361;28;918;-58
2023/10/12 09:00:24;;;;;;;;;;;;;;;23.11;70.83;100620.44;5073292;28;965;-58
2023/10/12 09:02:52;;;;;;;;;;;;;;;23.82;68.11;100620.06;5072908;28;918;-58
2023/10/12 09:05:25;;;;;;;;;;;;;;;24.38;63.35;100614.19;5073149;28;883;-58
2023/10/12 09:13:29;;;;;;;;;;;;;;;23.67;61.85;100612.72;5072993;28;1137;-58
2023/10/12 09:15:57;;;;;;;;;;;;;;;23.40;62.77;100601.00;5073228;28;1929;-58
2023/10/12 09:18:26;;;;;;;;;;;;;;;23.52;63.05;100599.28;5072918;28;880;-58
2023/10/12 09:23:32;;;;;;;;;;;;;;;23.19;61.98;100596.34;5072900;28;675;-58
2023/10/12 09:31:48;;;;;;;;;;;;;;;23.36;61.90;100591.91;5072718;28;734;-59
2023/10/12 09:37:06;;;;;;;;;;;;;;;23.16;61.63;100580.38;5072896;28;1882;-58
2023/10/12 09:39:27;;;;;;;;;;;;;;;23.17;62.41;100573.47;5071635;28;1444;-58
2023/10/12 09:41:55;;;;;;;;;;;;;;;23.06;61.31;100564.72;5072339;28;918;-58
2023/10/12 09:44:26;;;;;;;;;;;;;;;22.63;63.20;100568.09;5072429;28;929;-58
2023/10/12 09:46:56;;;;;;;;;;;;;;;22.25;63.30;100556.47;5072689;28;866;-58
2023/10/12 09:49:27;;;;;;;;;;;;;;;21.53;65.48;100557.25;5072290;28;900;-58
2023/10/12 09:51:55;;;;;;;;;;;;;;;21.58;65.02;100551.00;5072405;28;866;-58
2023/10/12 09:54:28;;;;;;;;;;;;;;;22.28;62.50;100538.66;5072238;28;952;-58
2023/10/12 09:57:24;;;;;;;;;;;;;;;22.96;59.64;100536.50;5072196;28;1894;-58
2023/10/12 09:59:59;;;;;;;;;;;;;;;23.57;58.90;100527.31;5072119;28;934;-58
2023/10/12 10:02:29;;;;;;;;;;;;;;;23.74;57.61;100525.69;5072145;28;883;-58
2023/10/12 10:05:10;;;;;;;;;;;;;;;23.72;57.76;100519.72;5072684;28;816;-58
2023/10/12 10:07:41;;;;;;;;;;;;;;;23.29;57.84;100518.94;5072321;28;881;-58
2023/10/12 10:10:27;;;;;;;;;;;;;;;22.46;59.95;100516.13;5072402;28;905;-58
2023/10/12 10:12:54;;;;;;;;;;;;;;;22.87;60.35;100499.06;5070244;28;1886;-58
2023/10/12 10:15:23;;;;;;;;;;;;;;;23.49;58.17;100509.94;5071509;28;1899;-58
2023/10/12 10:17:53;;;;;;;;;;;;;;;24.07;55.93;100495.91;5072193;28;965;-58
2023/10/12 10:22:56;;;;;;;;;;;;;;;24.25;54.01;100501.44;5071922;28;632;-57
2023/10/12 10:25:27;;;;;;;;;;;;;;;24.35;53.04;100497.28;5071913;28;952;-58
2023/10/12 10:27:57;;;;;;;;;;;;;;;24.12;53.05;100492.44;5071840;28;933;-58
2023/10/12 10:30:36;;;;;;;;;;;;;;;23.73;52.82;100486.66;5072012;28;830;-58
2023/10/12 10:33:13;;;;;;;;;;;;;;;23.82;53.75;100492.28;5070472;28;1286;-58
2023/10/12 10:35:58;;;;;;;;;;;;;;;24.17;52.54;100478.41;5070210;28;1884;-58
2023/10/12 10:38:32;;;;;;;;;;;;;;;24.17;52.34;100483.28;5071751;28;834;-58
2023/10/12 10:41:05;;;;;;;;;;;;;;;24.24;52.43;100468.81;5072144;28;885;-58
2023/10/12 10:43:37;;;;;;;;;;;;;;;24.53;51.15;100475.84;5071923;28;818;-58
2023/10/12 10:46:10;;;;;;;;;;;;;;;24.78;49.52;100466.81;5072012;28;934;-58
2023/10/12 10:48:38;;;;;;;;;;;;;;;24.73;47.11;100466.72;5071735;28;826;-59
2023/10/12 10:51:18;;;;;;;;;;;;;;;24.65;47.84;100461.44;5071644;28;901;-58
2023/10/12 10:53:53;;;;;;;;;;;;;;;24.71;47.54;100466.41;5071678;28;880;-58
2023/10/12 10:59:02;;;;;;;;;;;;;;;24.83;46.43;100457.66;5071582;28;804;-58
2023/10/12 11:01:28;;;;;;;;;;;;;;;24.71;46.59;100452.28;5071633;28;821;-58
2023/10/12 11:03:58;;;;;;;;;;;;;;;25.04;46.67;100446.47;5071679;28;851;-58
2023/10/12 11:06:27;;;;;;;;;;;;;;;25.05;46.00;100445.22;5071535;28;826;-58
2023/10/12 11:09:06;;;;;;;;;;;;;;;25.00;46.04;100443.06;5071404;28;930;-58
2023/10/12 11:11:48;;;;;;;;;;;;;;;24.94;46.03;100434.47;5071749;28;973;-58
2023/10/12 11:14:17;;;;;;;;;;;;;;;25.18;45.69;100436.44;5071429;28;1209;-58
2023/10/12 11:16:46;;;;;;;;;;;;;;;24.79;45.88;100437.31;5071273;28;1971;-58
2023/10/12 11:19:13;;;;;;;;;;;;;;;24.55;46.37;100428.09;5071435;28;900;-58
2023/10/12 11:21:45;;;;;;;;;;;;;;;24.88;46.09;100424.31;5071392;28;849;-58
2023/10/12 11:24:14;;;;;;;;;;;;;;;25.25;45.45;100416.25;5071377;28;905;-58
2023/10/12 11:26:52;;;;;;;;;;;;;;;25.54;43.83;100415.41;5075083;28;894;-59
2023/10/12 11:29:19;;;;;;;;;;;;;;;25.34;43.40;100407.63;5075070;28;806;-58
2023/10/12 11:32:08;;;;;;;;;;;;;;;25.17;43.68;100417.88;5075258;28;826;-58
2023/10/12 11:34:44;;;;;;;;;;;;;;;25.19;43.77;100404.03;5074957;28;925;-58
2023/10/12 11:37:15;;;;;;;;;;;;;;;25.45;42.92;100401.38;5074818;28;1943;-58
2023/10/12 11:39:42;;;;;;;;;;;;;;;25.73;42.27;100398.16;5074864;28;931;-58
2023/10/12 11:42:12;;;;;;;;;;;;;;;25.74;41.03;100394.84;5075103;28;841;-59
2023/10/12 11:44:42;;;;;;;;;;;;;;;26.09;40.78;100394.03;5074791;28;1280;-58
2023/10/12 11:47:30;;;;;;;;;;;;;;;26.12;39.31;100387.38;5074812;28;892;-59
2023/10/12 11:49:58;;;;;;;;;;;;;;;26.13;39.42;100388.91;5074762;28;862;-58
2023/10/12 11:52:32;;;;;;;;;;;;;;;26.46;38.87;100382.84;5074719;28;817;-58
2023/10/12 11:55:18;;;;;;;;;;;;;;;26.73;38.71;100383.66;5074788;28;821;-58
2023/10/12 11:57:59;;;;;;;;;;;;;;;26.91;39.23;100381.72;5074493;28;918;-58
2023/10/12 12:01:00;;;;;;;;;;;;;;;26.91;38.46;100376.06;5074614;28;954;-58
2023/10/12 12:03:19;;;;;;;;;;;;;;;27.05;37.65;100366.63;5070165;28;1231;-58
2023/10/12 12:05:55;;;;;;;;;;;;;;;27.09;37.33;100372.88;5073263;28;816;-59
2023/10/12 12:08:25;;;;;;;;;;;;;;;26.84;37.58;100363.91;5074335;28;845;-58
2023/10/12 12:10:56;;;;;;;;;;;;;;;26.75;38.08;100363.31;5072964;28;1279;-58
2023/10/12 12:13:23;;;;;;;;;;;;;;;26.85;37.71;100368.28;5074266;28;1202;-58
2023/10/12 12:15:53;;;;;;;;;;;;;;;26.84;37.77;100360.28;5074646;28;1973;-58
2023/10/12 12:18:20;;;;;;;;;;;;;;;27.28;37.24;100350.59;5072884;28;1310;-58
2023/10/12 12:20:49;;;;;;;;;;;;;;;27.72;36.47;100354.97;5074241;28;806;-58
2023/10/12 12:23:16;;;;;;;;;;;;;;;27.53;35.85;100353.84;5072842;28;953;-59
2023/10/12 12:25:44;;;;;;;;;;;;;;;27.51;36.20;100350.72;5074452;28;806;-58
2023/10/12 12:28:14;;;;;;;;;;;;;;;27.44;36.06;100340.59;5073921;28;937;-58
2023/10/12 12:30:46;;;;;;;;;;;;;;;27.42;35.93;100337.53;5074082;28;954;-58
2023/10/12 12:33:15;;;;;;;;;;;;;;;27.15;36.35;100339.63;5073842;28;919;-58
2023/10/12 12:35:45;;;;;;;;;;;;;;;27.47;36.13;100339.59;5073768;28;1947;-58
2023/10/12 12:38:51;;;;;;;;;;;;;;;27.82;35.17;100335.63;5073442;28;845;-58
2023/10/12 12:41:39;;;;;;;;;;;;;;;28.25;34.66;100332.69;5069349;28;1534;-59
2023/10/12 12:43:59;;;;;;;;;;;;;;;27.85;35.12;100332.59;5067501;28;1808;-58
2023/10/12 12:46:25;;;;;;;;;;;;;;;27.64;35.17;100320.59;5073660;28;922;-58
2023/10/12 12:48:52;;;;;;;;;;;;;;;27.76;35.14;100323.47;5072381;28;1613;-58
2023/10/12 12:51:19;;;;;;;;;;;;;;;27.91;34.80;100315.56;5073641;28;860;-58
2023/10/12 12:53:46;;;;;;;;;;;;;;;28.00;34.59;100318.19;5073635;28;884;-59
2023/10/12 12:56:14;;;;;;;;;;;;;;;27.77;34.48;100317.28;5073354;28;1947;-58
2023/10/12 12:58:47;;;;;;;;;;;;;;;27.88;34.30;100308.06;5072383;28;829;-58
2023/10/12 13:01:18;;;;;;;;;;;;;;;27.96;34.14;100308.34;5073367;28;905;-58
2023/10/12 13:03:45;;;;;;;;;;;;;;;28.14;34.23;100307.88;5073447;28;1266;-58
2023/10/12 13:06:14;;;;;;;;;;;;;;;27.98;34.37;100303.72;5073506;28;1180;-58
2023/10/12 13:08:41;;;;;;;;;;;;;;;27.99;34.00;100302.41;5071951;28;1331;-58
2023/10/12 13:11:09;;;;;;;;;;;;;;;27.67;34.41;100298.91;5073260;28;831;-59
2023/10/12 13:13:35;;;;;;;;;;;;;;;27.23;34.69;100305.94;5072944;28;1128;-58
2023/10/12 13:16:03;;;;;;;;;;;;;;;27.35;34.64;100290.50;5073283;28;1976;-58
2023/10/12 13:18:32;;;;;;;;;;;;;;;27.74;34.74;100294.81;5073071;28;869;-58
2023/10/12 13:20:59;;;;;;;;;;;;;;;28.08;34.38;100290.06;5072912;28;878;-58
2023/10/12 13:23:26;;;;;;;;;;;;;;;28.00;34.21;100286.16;5073015;28;873;-58
2023/10/12 13:25:53;;;;;;;;;;;;;;;27.67;34.16;100291.19;5072776;28;894;-58
2023/10/12 13:28:21;;;;;;;;;;;;;;;27.23;35.30;100278.34;5072975;28;838;-58
2023/10/12 13:30:48;;;;;;;;;;;;;;;27.01;35.65;100283.84;5072758;28;1062;-58
2023/10/12 13:33:16;;;;;;;;;;;;;;;26.64;36.29;100281.78;5072657;28;888;-58
2023/10/12 13:35:45;;;;;;;;;;;;;;;26.58;36.75;100276.03;5071402;28;1914;-58
2023/10/12 13:38:15;;;;;;;;;;;;;;;26.72;36.73;100270.75;5072432;28;886;-58
2023/10/12 13:40:46;;;;;;;;;;;;;;;26.41;37.45;100278.72;5072589;28;926;-58
2023/10/12 13:43:18;;;;;;;;;;;;;;;26.37;37.44;100271.72;5072496;28;882;-58
2023/10/12 13:45:48;;;;;;;;;;;;;;;25.96;37.85;100263.34;5072812;28;853;-58
2023/10/12 13:48:27;;;;;;;;;;;;;;;25.97;37.86;100264.91;5072369;28;854;-58
2023/10/12 13:51:01;;;;;;;;;;;;;;;26.07;37.97;100257.78;5072408;28;905;-58
2023/10/12 13:53:27;;;;;;;;;;;;;;;26.12;37.70;100257.06;5071352;28;925;-58
2023/10/12 13:55:54;;;;;;;;;;;;;;;25.80;37.99;100244.88;5071029;28;1968;-58
2023/10/12 13:58:24;;;;;;;;;;;;;;;25.75;38.21;100254.06;5072376;28;1352;-58
2023/10/12 14:00:54;;;;;;;;;;;;;;;25.59;38.36;100249.78;5072115;28;945;-58
2023/10/12 14:03:29;;;;;;;;;;;;;;;25.42;38.73;100249.56;5072223;28;894;-58
2023/10/12 14:05:56;;;;;;;;;;;;;;;25.11;39.22;100248.09;5072272;28;841;-58
2023/10/12 14:08:24;;;;;;;;;;;;;;;24.56;40.01;100249.63;5071087;28;834;-58
2023/10/12 14:10:54;;;;;;;;;;;;;;;24.05;41.34;100243.06;5072022;28;925;-57
2023/10/12 14:13:21;;;;;;;;;;;;;;;23.39;43.03;100252.53;5071927;28;1169;-58
2023/10/12 14:15:47;;;;;;;;;;;;;;;22.93;44.04;100252.75;5072111;28;1917;-58
2023/10/12 14:18:17;;;;;;;;;;;;;;;22.69;45.12;100252.72;5072053;28;806;-57
2023/10/12 14:20:46;;;;;;;;;;;;;;;22.34;45.72;100250.34;5072244;28;1570;-57
2023/10/12 14:23:13;;;;;;;;;;;;;;;22.05;46.71;100255.69;5072122;28;1227;-57
2023/10/12 14:25:47;;;;;;;;;;;;;;;21.81;47.56;100242.28;5072185;28;810;-57
2023/10/12 14:28:17;;;;;;;;;;;;;;;21.73;48.24;100247.41;5070607;28;1287;-58
2023/10/12 14:30:47;;;;;;;;;;;;;;;21.61;49.17;100243.53;5072091;28;1009;-58
2023/10/12 14:33:20;;;;;;;;;;;;;;;21.45;49.40;100248.66;5054343;28;846;-57
2023/10/12 14:35:48;;;;;;;;;;;;;;;21.22;50.05;100253.59;5071572;28;1978;-57
2023/10/12 14:38:16;;;;;;;;;;;;;;;21.09;50.86;100250.91;5072014;28;1201;-57
2023/10/12 14:40:44;;;;;;;;;;;;;;;21.12;51.09;100249.19;5071884;28;973;-57
2023/10/12 14:43:11;;;;;;;;;;;;;;;20.93;51.60;100245.53;5072257;28;962;-57
2023/10/12 14:45:49;;;;;;;;;;;;;;;20.73;52.92;100252.34;5071751;28;1072;-57
2023/10/12 14:48:18;;;;;;;;;;;;;;;20.45;54.58;100247.84;5071684;28;970;-57
2023/10/12 14:50:46;;;;;;;;;;;;;;;20.20;56.19;100246.75;5071643;28;888;-57
2023/10/12 14:53:30;;;;;;;;;;;;;;;19.95;58.23;100250.47;5071694;28;841;-57
2023/10/12 14:55:56;;;;;;;;;;;;;;;19.78;59.78;100252.69;5071633;28;1878;-57
2023/10/12 14:58:26;;;;;;;;;;;;;;;19.71;61.23;100250.91;5071697;28;865;-58
2023/10/12 15:00:53;;;;;;;;;;;;;;;19.58;62.66;100252.94;5074367;28;869;-57
2023/10/12 15:03:23;;;;;;;;;;;;;;;19.37;64.11;100257.28;5075524;28;961;-57
2023/10/12 15:05:53;;;;;;;;;;;;;;;19.18;65.28;100257.09;5075503;28;914;-57
2023/10/12 15:08:20;;;;;;;;;;;;;;;19.01;66.28;100258.47;5075541;28;928;-56
2023/10/12 15:10:47;;;;;;;;;;;;;;;18.80;68.75;100268.34;5075553;28;861;-56
2023/10/12 15:13:16;;;;;;;;;;;;;;;18.55;70.45;100261.44;5075191;28;1177;-57
2023/10/12 15:15:45;;;;;;;;;;;;;;;18.39;72.12;100264.34;5075688;28;1969;-57
2023/10/12 15:18:17;;;;;;;;;;;;;;;18.21;73.75;100267.66;5075279;28;871;-56
2023/10/12 15:20:48;;;;;;;;;;;;;;;18.04;74.42;100266.16;5075311;28;894;-57
2023/10/12 15:23:16;;;;;;;;;;;;;;;17.85;75.60;100265.88;5075186;28;903;-56
2023/10/12 15:25:43;;;;;;;;;;;;;;;17.66;77.69;100263.97;5075160;28;929;-56
2023/10/12 15:28:11;;;;;;;;;;;;;;;17.48;79.54;100270.03;5075191;28;820;-56
2023/10/12 15:30:43;;;;;;;;;;;;;;;17.28;80.96;100268.13;5074969;28;906;-55
2023/10/12 15:33:10;;;;;;;;;;;;;;;17.08;83.19;100264.66;5075078;28;838;-58
2023/10/12 15:35:36;;;;;;;;;;;;;;;16.90;84.50;100267.88;5074765;28;1882;-59